createdAt,value
2019-03-24T00:00:05.930Z,8.60
2019-03-24T00:02:34.497Z,8.60
2019-03-24T00:05:03.200Z,8.50
2019-03-24T00:07:31.695Z,8.50
2019-03-24T00:10:00.323Z,8.70
2019-03-24T00:12:29.334Z,8.60
2019-03-24T00:14:57.759Z,8.60
2019-03-24T00:17:26.198Z,8.70
2019-03-24T00:19:54.619Z,8.80
2019-03-24T00:22:23.052Z,8.70
2019-03-24T00:24:51.466Z,9.00
2019-03-24T00:27:19.896Z,8.80
2019-03-24T00:29:48.337Z,8.70
2019-03-24T00:32:16.767Z,8.70
2019-03-24T00:34:45.210Z,8.70
2019-03-24T00:37:13.644Z,8.60
2019-03-24T00:39:42.064Z,8.40
2019-03-24T00:42:10.495Z,8.50
2019-03-24T00:44:38.920Z,8.70
2019-03-24T00:47:07.354Z,8.60
2019-03-24T00:49:35.761Z,8.50
2019-03-24T00:52:04.270Z,8.30
2019-03-24T00:54:32.704Z,8.40
2019-03-24T00:57:01.217Z,8.40
2019-03-24T00:59:29.658Z,8.30
2019-03-24T01:01:58.118Z,8.00
2019-03-24T01:04:26.614Z,7.80
2019-03-24T01:06:55.106Z,7.80
2019-03-24T01:09:23.526Z,7.70
2019-03-24T01:11:51.960Z,7.70
2019-03-24T01:14:20.417Z,7.80
2019-03-24T01:16:48.865Z,7.70
2019-03-24T01:19:17.285Z,7.70
2019-03-24T01:21:45.713Z,7.70
2019-03-24T01:24:14.148Z,7.60
2019-03-24T01:26:42.578Z,7.50
2019-03-24T01:29:10.998Z,7.50
2019-03-24T01:31:39.435Z,7.50
2019-03-24T01:34:07.859Z,7.50
2019-03-24T01:36:36.297Z,7.50
2019-03-24T01:39:06.757Z,7.60
2019-03-24T01:41:35.186Z,7.50
2019-03-24T01:44:03.764Z,7.40
2019-03-24T01:46:32.185Z,7.40
2019-03-24T01:49:00.626Z,7.40
2019-03-24T01:51:29.048Z,7.50
2019-03-24T01:53:57.481Z,7.40
2019-03-24T01:56:25.913Z,7.30
2019-03-24T01:58:54.334Z,7.30
2019-03-24T02:01:22.749Z,7.00
2019-03-24T02:03:51.177Z,7.00
2019-03-24T02:06:19.612Z,7.10
2019-03-24T02:08:48.050Z,7.20
2019-03-24T02:11:16.457Z,7.20
2019-03-24T02:13:44.913Z,7.20
2019-03-24T02:16:13.330Z,7.00
2019-03-24T02:18:41.765Z,7.00
2019-03-24T02:21:10.196Z,6.80
2019-03-24T02:23:38.654Z,6.70
2019-03-24T02:26:07.082Z,6.90
2019-03-24T02:28:35.509Z,6.90
2019-03-24T02:31:03.942Z,6.80
2019-03-24T02:33:32.391Z,6.60
2019-03-24T02:36:00.817Z,6.50
2019-03-24T02:38:29.321Z,6.50
2019-03-24T02:40:57.752Z,6.50
2019-03-24T02:43:26.184Z,6.40
2019-03-24T02:45:54.610Z,6.50
2019-03-24T02:48:23.038Z,6.40
2019-03-24T02:50:51.478Z,6.40
2019-03-24T02:53:19.907Z,6.50
2019-03-24T02:55:48.340Z,6.50
2019-03-24T02:58:16.761Z,6.40
2019-03-24T03:00:45.182Z,6.40
2019-03-24T03:03:13.622Z,6.30
2019-03-24T03:05:42.033Z,6.40
2019-03-24T03:08:10.527Z,6.30
2019-03-24T03:10:38.955Z,6.30
2019-03-24T03:13:07.402Z,6.30
2019-03-24T03:15:35.823Z,6.30
2019-03-24T03:18:04.327Z,6.20
2019-03-24T03:20:32.758Z,6.40
2019-03-24T03:23:01.258Z,6.50
2019-03-24T03:25:29.677Z,6.50
2019-03-24T03:27:58.143Z,6.50
2019-03-24T03:30:26.579Z,6.50
2019-03-24T03:32:55.001Z,6.50
2019-03-24T03:35:23.482Z,6.50
2019-03-24T03:37:51.925Z,6.30
2019-03-24T03:40:20.436Z,6.20
2019-03-24T03:42:48.973Z,6.20
2019-03-24T03:45:20.495Z,6.30
2019-03-24T03:47:48.910Z,6.30
2019-03-24T03:50:17.352Z,6.30
2019-03-24T03:52:45.770Z,6.00
2019-03-24T03:55:14.346Z,5.80
2019-03-24T03:57:42.757Z,5.80
2019-03-24T04:00:11.428Z,5.90
2019-03-24T04:02:39.866Z,5.90
2019-03-24T04:05:08.547Z,6.00
2019-03-24T04:07:36.960Z,6.10
2019-03-24T04:10:05.539Z,6.10
2019-03-24T04:12:33.960Z,6.10
2019-03-24T04:15:02.382Z,6.10
2019-03-24T04:17:30.850Z,6.00
2019-03-24T04:19:59.353Z,6.00
2019-03-24T04:22:27.827Z,6.00
2019-03-24T04:24:56.444Z,5.80
2019-03-24T04:27:24.862Z,5.70
2019-03-24T04:29:53.375Z,5.80
2019-03-24T04:32:21.800Z,5.80
2019-03-24T04:34:50.219Z,5.70
2019-03-24T04:37:18.639Z,5.80
2019-03-24T04:39:47.116Z,5.90
2019-03-24T04:42:15.538Z,5.80
2019-03-24T04:44:43.971Z,5.60
2019-03-24T04:47:16.515Z,5.50
2019-03-24T04:49:42.560Z,5.30
2019-03-24T04:52:10.991Z,5.40
2019-03-24T04:54:39.426Z,5.50
2019-03-24T04:57:07.871Z,5.40
2019-03-24T04:59:36.327Z,5.40
2019-03-24T05:02:04.820Z,5.30
2019-03-24T05:04:33.267Z,5.40
2019-03-24T05:07:01.712Z,5.40
2019-03-24T05:09:30.526Z,5.30
2019-03-24T05:11:58.956Z,5.30
2019-03-24T05:14:27.390Z,5.40
2019-03-24T05:16:55.805Z,5.50
2019-03-24T05:19:24.329Z,5.40
2019-03-24T05:21:52.734Z,5.40
2019-03-24T05:24:21.155Z,5.30
2019-03-24T05:26:49.582Z,5.50
2019-03-24T05:29:18.015Z,5.50
2019-03-24T05:31:46.446Z,5.60
2019-03-24T05:34:14.868Z,5.50
2019-03-24T05:36:44.025Z,5.40
2019-03-24T05:39:12.458Z,5.30
2019-03-24T05:41:40.887Z,5.20
2019-03-24T05:44:09.296Z,5.20
2019-03-24T05:46:37.723Z,5.40
2019-03-24T05:49:06.150Z,5.40
2019-03-24T05:51:34.591Z,5.50
2019-03-24T05:54:03.010Z,5.50
2019-03-24T05:56:31.456Z,5.40
2019-03-24T05:58:59.865Z,5.50
2019-03-24T06:01:28.299Z,5.40
2019-03-24T06:03:56.709Z,5.20
2019-03-24T06:06:25.169Z,5.10
2019-03-24T06:08:53.597Z,5.20
2019-03-24T06:11:22.036Z,5.10
2019-03-24T06:13:50.530Z,5.20
2019-03-24T06:16:18.972Z,5.30
2019-03-24T06:18:47.391Z,5.40
2019-03-24T06:21:16.074Z,5.50
2019-03-24T06:23:44.585Z,5.50
2019-03-24T06:26:13.015Z,5.50
2019-03-24T06:28:41.462Z,5.60
2019-03-24T06:31:09.907Z,5.50
2019-03-24T06:33:38.339Z,5.50
2019-03-24T06:36:06.771Z,5.60
2019-03-24T06:38:35.206Z,5.70
2019-03-24T06:41:03.645Z,5.70
2019-03-24T06:43:32.067Z,5.80
2019-03-24T06:46:00.506Z,5.80
2019-03-24T06:48:28.933Z,5.80
2019-03-24T06:50:57.374Z,5.80
2019-03-24T06:53:25.797Z,5.70
2019-03-24T06:55:54.253Z,5.80
2019-03-24T06:58:22.701Z,5.90
2019-03-24T07:00:51.302Z,5.90
2019-03-24T07:03:19.741Z,5.90
2019-03-24T07:05:48.255Z,5.80
2019-03-24T07:08:16.678Z,6.00
2019-03-24T07:10:45.136Z,6.00
2019-03-24T07:13:13.570Z,6.10
2019-03-24T07:15:41.996Z,6.20
2019-03-24T07:18:10.444Z,6.20
2019-03-24T07:20:38.869Z,6.20
2019-03-24T07:23:07.316Z,6.20
2019-03-24T07:25:35.746Z,6.10
2019-03-24T07:28:04.207Z,6.10
2019-03-24T07:30:32.640Z,6.30
2019-03-24T07:33:06.780Z,6.40
2019-03-24T07:35:35.215Z,6.40
2019-03-24T07:38:03.653Z,6.60
2019-03-24T07:40:32.072Z,6.60
2019-03-24T07:43:00.766Z,6.50
2019-03-24T07:45:29.198Z,6.60
2019-03-24T07:47:57.633Z,6.60
2019-03-24T07:50:26.086Z,6.70
2019-03-24T07:52:54.574Z,6.70
2019-03-24T07:55:22.987Z,6.80
2019-03-24T07:57:51.418Z,6.80
2019-03-24T08:00:36.214Z,6.80
2019-03-24T08:03:04.892Z,6.70
2019-03-24T08:05:33.386Z,6.70
2019-03-24T08:08:01.831Z,6.90
2019-03-24T08:10:30.265Z,7.00
2019-03-24T08:12:58.722Z,7.10
2019-03-24T08:15:27.142Z,7.10
2019-03-24T08:17:55.645Z,7.30
2019-03-24T08:20:24.071Z,7.20
2019-03-24T08:22:52.525Z,7.30
2019-03-24T08:25:20.963Z,7.40
2019-03-24T08:27:49.416Z,7.40
2019-03-24T08:30:20.938Z,7.10
2019-03-24T08:32:49.376Z,7.10
2019-03-24T08:35:17.898Z,7.10
2019-03-24T08:37:46.400Z,7.20
2019-03-24T08:40:14.882Z,7.40
2019-03-24T08:42:43.497Z,7.70
2019-03-24T08:45:14.993Z,7.80
2019-03-24T08:47:43.433Z,7.80
2019-03-24T08:50:11.944Z,7.80
2019-03-24T08:52:40.400Z,7.80
2019-03-24T08:55:08.829Z,7.90
2019-03-24T08:57:37.270Z,8.00
2019-03-24T09:00:06.836Z,8.00
2019-03-24T09:02:35.280Z,8.20
2019-03-24T09:05:05.233Z,8.30
2019-03-24T09:07:33.688Z,8.30
2019-03-24T09:10:02.184Z,8.30
2019-03-24T09:12:31.303Z,8.40
2019-03-24T09:14:59.850Z,8.50
2019-03-24T09:17:28.306Z,8.50
2019-03-24T09:19:58.267Z,8.60
2019-03-24T09:22:26.714Z,8.50
2019-03-24T09:24:55.151Z,8.50
2019-03-24T09:27:23.575Z,8.60
2019-03-24T09:29:52.055Z,8.60
2019-03-24T09:32:20.540Z,8.50
2019-03-24T09:34:48.967Z,8.70
2019-03-24T09:37:17.394Z,8.70
2019-03-24T09:39:45.828Z,8.80
2019-03-24T09:42:14.254Z,8.80
2019-03-24T09:44:42.714Z,8.80
2019-03-24T09:47:11.147Z,8.90
2019-03-24T09:49:39.587Z,9.10
2019-03-24T09:52:08.022Z,9.20
2019-03-24T09:54:36.467Z,9.10
2019-03-24T09:57:05.043Z,9.20
2019-03-24T09:59:33.499Z,9.20
2019-03-24T10:02:01.921Z,9.20
2019-03-24T10:04:30.349Z,9.30
2019-03-24T10:06:58.794Z,9.60
2019-03-24T10:09:27.237Z,9.50
2019-03-24T10:11:55.644Z,9.50
2019-03-24T10:14:24.086Z,9.50
2019-03-24T10:16:52.535Z,9.60
2019-03-24T10:19:20.988Z,9.70
2019-03-24T10:21:49.402Z,9.80
2019-03-24T10:24:17.853Z,9.90
2019-03-24T10:26:46.281Z,10.10
2019-03-24T10:29:14.731Z,10.20
2019-03-24T10:31:43.625Z,10.20
2019-03-24T10:34:12.049Z,10.20
2019-03-24T10:36:40.717Z,10.20
2019-03-24T10:39:09.150Z,10.50
2019-03-24T10:41:37.589Z,10.50
2019-03-24T10:44:06.069Z,10.40
2019-03-24T10:46:34.574Z,10.60
2019-03-24T10:49:03.166Z,10.50
2019-03-24T10:51:31.608Z,10.50
2019-03-24T10:54:00.048Z,10.60
2019-03-24T10:56:28.482Z,10.90
2019-03-24T10:58:56.918Z,10.90
2019-03-24T11:01:25.350Z,11.10
2019-03-24T11:03:53.795Z,10.90
2019-03-24T11:06:22.219Z,11.10
2019-03-24T11:08:50.743Z,11.40
2019-03-24T11:11:19.177Z,11.50
2019-03-24T11:13:47.870Z,11.40
2019-03-24T11:16:16.302Z,11.60
2019-03-24T11:18:44.755Z,11.70
2019-03-24T11:21:13.194Z,11.70
2019-03-24T11:23:41.628Z,11.90
2019-03-24T11:26:10.074Z,11.90
2019-03-24T11:28:38.497Z,12.10
2019-03-24T11:31:06.930Z,12.00
2019-03-24T11:33:35.364Z,11.90
2019-03-24T11:36:04.180Z,12.30
2019-03-24T11:38:32.605Z,12.40
2019-03-24T11:41:01.047Z,12.70
2019-03-24T11:43:29.518Z,13.00
2019-03-24T11:45:57.966Z,12.70
2019-03-24T11:48:26.379Z,12.40
2019-03-24T11:50:54.831Z,12.30
2019-03-24T11:53:23.325Z,12.50
2019-03-24T11:55:51.754Z,12.50
2019-03-24T11:58:20.178Z,12.40
2019-03-24T12:00:48.693Z,12.60
2019-03-24T12:03:17.109Z,12.70
2019-03-24T12:05:45.544Z,13.10
2019-03-24T12:08:14.007Z,13.50
2019-03-24T12:10:42.432Z,13.30
2019-03-24T12:13:10.958Z,13.40
2019-03-24T12:15:39.397Z,13.90
2019-03-24T12:18:07.889Z,14.50
2019-03-24T12:20:36.366Z,14.30
2019-03-24T12:23:04.794Z,14.30
2019-03-24T12:25:33.303Z,14.50
2019-03-24T12:28:01.717Z,14.00
2019-03-24T12:30:30.173Z,13.70
2019-03-24T12:32:58.615Z,13.70
2019-03-24T12:35:27.055Z,14.40
2019-03-24T12:37:55.474Z,14.60
2019-03-24T12:40:23.931Z,14.60
2019-03-24T12:42:52.353Z,14.60
2019-03-24T12:45:20.866Z,14.80
2019-03-24T12:47:49.374Z,14.90
2019-03-24T12:50:17.877Z,15.20
2019-03-24T12:52:46.309Z,14.90
2019-03-24T12:55:15.031Z,14.40
2019-03-24T12:57:44.255Z,14.60
2019-03-24T13:00:13.198Z,15.30
2019-03-24T13:02:41.692Z,15.70
2019-03-24T13:05:10.484Z,15.70
2019-03-24T13:07:39.008Z,15.20
2019-03-24T13:10:07.764Z,15.10
2019-03-24T13:12:36.453Z,15.10
2019-03-24T13:15:08.771Z,15.30
2019-03-24T13:17:37.329Z,15.50
2019-03-24T13:20:07.776Z,15.40
2019-03-24T13:22:36.455Z,15.40
2019-03-24T13:25:06.712Z,15.50
2019-03-24T13:27:35.180Z,15.30
2019-03-24T13:30:07.950Z,15.40
2019-03-24T13:32:36.378Z,15.50
2019-03-24T13:35:05.142Z,15.80
2019-03-24T13:37:33.587Z,16.10
2019-03-24T13:40:02.058Z,16.20
2019-03-24T13:42:30.568Z,15.90
2019-03-24T13:44:59.012Z,15.80
2019-03-24T13:47:27.455Z,16.30
2019-03-24T13:49:55.882Z,16.90
2019-03-24T13:52:24.409Z,16.80
2019-03-24T13:54:52.846Z,16.80
2019-03-24T13:57:21.711Z,16.90
2019-03-24T13:59:50.139Z,17.10
2019-03-24T14:02:18.652Z,16.50
2019-03-24T14:04:47.614Z,16.40
2019-03-24T14:07:16.206Z,16.60
2019-03-24T14:09:44.622Z,16.90
2019-03-24T14:12:13.051Z,17.30
2019-03-24T14:14:41.499Z,16.50
2019-03-24T14:17:09.945Z,16.90
2019-03-24T14:19:38.485Z,16.80
2019-03-24T14:22:06.997Z,16.40
2019-03-24T14:24:35.442Z,16.90
2019-03-24T14:27:03.878Z,16.40
2019-03-24T14:29:32.305Z,16.60
2019-03-24T14:32:00.744Z,16.70
2019-03-24T14:34:29.170Z,16.30
2019-03-24T14:36:57.619Z,16.50
2019-03-24T14:39:26.042Z,16.60
2019-03-24T14:41:54.472Z,16.50
2019-03-24T14:44:22.936Z,16.60
2019-03-24T14:46:51.361Z,16.50
2019-03-24T14:49:19.803Z,16.80
2019-03-24T14:51:48.229Z,16.50
2019-03-24T14:54:16.666Z,16.30
2019-03-24T14:56:45.099Z,16.40
2019-03-24T14:59:13.542Z,16.30
2019-03-24T15:01:41.988Z,16.30
2019-03-24T15:04:10.434Z,16.90
2019-03-24T15:06:38.878Z,17.10
2019-03-24T15:09:07.623Z,16.70
2019-03-24T15:11:36.046Z,16.70
2019-03-24T15:14:04.567Z,16.70
2019-03-24T15:16:32.987Z,16.50
2019-03-24T15:19:07.323Z,16.90
2019-03-24T15:21:35.757Z,17.10
2019-03-24T15:24:04.269Z,17.30
2019-03-24T15:26:32.696Z,17.00
2019-03-24T15:29:01.148Z,16.60
2019-03-24T15:31:29.593Z,16.60
2019-03-24T15:33:58.077Z,16.90
2019-03-24T15:36:26.504Z,17.50
2019-03-24T15:38:54.946Z,17.30
2019-03-24T15:41:23.390Z,17.00
2019-03-24T15:43:51.847Z,17.30
2019-03-24T15:46:20.303Z,16.80
2019-03-24T15:48:50.240Z,17.10
2019-03-24T15:51:18.985Z,17.40
2019-03-24T15:53:48.207Z,17.40
2019-03-24T15:56:16.633Z,16.90
2019-03-24T15:58:45.072Z,16.50
2019-03-24T16:01:13.552Z,16.70
2019-03-24T16:03:42.032Z,16.10
2019-03-24T16:06:13.080Z,16.00
2019-03-24T16:08:41.523Z,16.00
2019-03-24T16:11:09.968Z,15.90
2019-03-24T16:13:38.426Z,15.70
2019-03-24T16:16:06.840Z,15.70
2019-03-24T16:18:35.287Z,15.70
2019-03-24T16:21:08.553Z,15.60
2019-03-24T16:23:34.243Z,15.70
2019-03-24T16:26:02.687Z,15.70
2019-03-24T16:28:31.138Z,15.80
2019-03-24T16:30:59.621Z,15.70
2019-03-24T16:33:28.069Z,15.90
2019-03-24T16:35:56.507Z,15.70
2019-03-24T16:38:24.979Z,15.80
2019-03-24T16:40:53.459Z,15.60
2019-03-24T16:43:21.915Z,15.80
2019-03-24T16:45:50.590Z,15.50
2019-03-24T16:48:19.045Z,15.80
2019-03-24T16:50:47.464Z,15.80
2019-03-24T16:53:15.934Z,15.60
2019-03-24T16:55:44.360Z,15.40
2019-03-24T16:58:12.788Z,15.20
2019-03-24T17:00:41.244Z,15.30
2019-03-24T17:03:09.678Z,15.10
2019-03-24T17:05:38.122Z,15.30
2019-03-24T17:08:06.605Z,15.30
2019-03-24T17:10:35.042Z,15.20
2019-03-24T17:13:03.473Z,15.10
2019-03-24T17:15:31.927Z,15.10
2019-03-24T17:18:06.322Z,14.90
2019-03-24T17:20:34.765Z,14.80
2019-03-24T17:23:03.284Z,14.70
2019-03-24T17:25:32.722Z,14.60
2019-03-24T17:28:01.141Z,14.50
2019-03-24T17:30:29.593Z,14.40
2019-03-24T17:32:58.028Z,14.30
2019-03-24T17:35:26.469Z,14.20
2019-03-24T17:37:56.436Z,14.10
2019-03-24T17:40:24.880Z,14.00
2019-03-24T17:42:53.315Z,14.00
2019-03-24T17:45:21.767Z,13.90
2019-03-24T17:47:50.208Z,13.90
2019-03-24T17:50:18.805Z,13.80
2019-03-24T17:52:47.231Z,13.80
2019-03-24T17:55:26.842Z,13.70
2019-03-24T17:57:46.389Z,13.60
2019-03-24T18:00:19.174Z,13.60
2019-03-24T18:02:47.674Z,13.50
2019-03-24T18:05:16.124Z,13.40
2019-03-24T18:07:44.550Z,13.40
2019-03-24T18:10:13.070Z,13.30
2019-03-24T18:12:41.496Z,13.30
2019-03-24T18:15:10.696Z,13.20
2019-03-24T18:17:39.126Z,13.20
2019-03-24T18:20:09.396Z,13.20
2019-03-24T18:22:37.829Z,13.10
2019-03-24T18:25:07.727Z,13.10
2019-03-24T18:27:36.164Z,13.10
2019-03-24T18:30:07.951Z,13.00
2019-03-24T18:32:36.453Z,13.00
2019-03-24T18:35:09.622Z,12.90
2019-03-24T18:37:38.069Z,12.90
2019-03-24T18:40:10.766Z,12.80
2019-03-24T18:42:39.274Z,12.70
2019-03-24T18:45:09.647Z,12.80
2019-03-24T18:47:39.387Z,12.90
2019-03-24T18:50:11.698Z,12.90
2019-03-24T18:52:40.122Z,13.00
2019-03-24T18:55:09.319Z,12.90
2019-03-24T18:57:37.761Z,12.90
2019-03-24T19:00:13.226Z,12.90
2019-03-24T19:02:43.882Z,12.90
2019-03-24T19:05:12.542Z,12.90
2019-03-24T19:07:41.037Z,12.90
2019-03-24T19:10:11.112Z,12.80
2019-03-24T19:12:39.630Z,12.70
2019-03-24T19:15:10.875Z,12.70
2019-03-24T19:17:39.334Z,12.60
2019-03-24T19:20:09.687Z,12.60
2019-03-24T19:22:38.157Z,12.60
2019-03-24T19:25:09.089Z,12.50
2019-03-24T19:27:37.536Z,12.60
2019-03-24T19:30:09.198Z,12.60
2019-03-24T19:32:37.663Z,12.50
2019-03-24T19:35:07.903Z,12.50
2019-03-24T19:37:36.786Z,12.50
2019-03-24T19:40:08.537Z,12.40
2019-03-24T19:42:36.976Z,12.10
2019-03-24T19:45:05.850Z,11.90
2019-03-24T19:47:34.291Z,12.00
2019-03-24T19:50:02.740Z,12.20
2019-03-24T19:52:31.176Z,12.10
2019-03-24T19:54:59.595Z,11.90
2019-03-24T19:57:28.032Z,11.90
2019-03-24T19:59:56.466Z,11.90
2019-03-24T20:02:24.906Z,11.90
2019-03-24T20:04:55.230Z,11.80
2019-03-24T20:07:23.678Z,11.80
2019-03-24T20:09:52.138Z,11.70
2019-03-24T20:12:20.596Z,11.70
2019-03-24T20:14:49.016Z,11.50
2019-03-24T20:17:17.454Z,11.30
2019-03-24T20:19:45.867Z,11.10
2019-03-24T20:22:14.335Z,11.10
2019-03-24T20:24:42.781Z,11.10
2019-03-24T20:27:11.197Z,11.10
2019-03-24T20:29:39.630Z,10.90
2019-03-24T20:32:08.079Z,10.90
2019-03-24T20:34:36.527Z,10.80
2019-03-24T20:37:05.817Z,10.80
2019-03-24T20:39:34.340Z,10.80
2019-03-24T20:42:02.787Z,10.80
2019-03-24T20:44:31.245Z,10.70
2019-03-24T20:46:59.972Z,10.70
2019-03-24T20:49:28.478Z,10.60
2019-03-24T20:51:56.973Z,10.50
2019-03-24T20:54:25.448Z,10.40
2019-03-24T20:56:53.882Z,10.20
2019-03-24T20:59:22.316Z,10.10
2019-03-24T21:01:50.751Z,10.10
2019-03-24T21:04:20.323Z,10.00
2019-03-24T21:06:48.888Z,9.90
2019-03-24T21:09:17.310Z,9.90
2019-03-24T21:11:45.767Z,9.90
2019-03-24T21:14:14.194Z,10.00
2019-03-24T21:16:42.646Z,10.20
2019-03-24T21:19:11.097Z,10.20
2019-03-24T21:21:39.532Z,10.30
2019-03-24T21:24:07.979Z,10.50
2019-03-24T21:26:36.462Z,10.60
2019-03-24T21:29:04.980Z,10.50
2019-03-24T21:31:33.495Z,10.50
2019-03-24T21:34:01.934Z,10.60
2019-03-24T21:36:30.378Z,10.60
2019-03-24T21:38:58.822Z,10.30
2019-03-24T21:41:27.245Z,10.30
2019-03-24T21:43:55.684Z,10.30
2019-03-24T21:46:24.118Z,10.30
2019-03-24T21:48:52.559Z,10.30
2019-03-24T21:51:21.020Z,10.40
2019-03-24T21:53:49.478Z,10.40
2019-03-24T21:56:17.925Z,10.40
2019-03-24T21:58:46.378Z,10.50
2019-03-24T22:01:14.809Z,10.70
2019-03-24T22:03:43.257Z,10.70
2019-03-24T22:06:11.697Z,10.60
2019-03-24T22:08:40.215Z,10.60
2019-03-24T22:11:08.634Z,10.60
2019-03-24T22:13:37.085Z,10.60
2019-03-24T22:16:05.515Z,10.60
2019-03-24T22:18:33.950Z,10.70
2019-03-24T22:21:02.389Z,10.60
2019-03-24T22:23:30.823Z,10.60
2019-03-24T22:25:59.256Z,10.70
2019-03-24T22:28:27.707Z,10.60
2019-03-24T22:30:56.127Z,10.60
2019-03-24T22:33:24.572Z,10.60
2019-03-24T22:35:53.000Z,10.50
2019-03-24T22:38:21.458Z,10.50
2019-03-24T22:40:49.885Z,10.60
2019-03-24T22:43:18.326Z,10.50
2019-03-24T22:45:46.779Z,10.60
2019-03-24T22:48:15.203Z,10.50
2019-03-24T22:50:43.630Z,10.60
2019-03-24T22:53:12.089Z,10.50
2019-03-24T22:55:40.512Z,10.50
2019-03-24T22:58:08.974Z,10.60
2019-03-24T23:00:48.153Z,10.60
2019-03-24T23:03:16.595Z,10.70
2019-03-24T23:05:45.017Z,10.70
2019-03-24T23:08:13.464Z,10.60
2019-03-24T23:10:41.894Z,10.70
2019-03-24T23:13:10.346Z,10.60
2019-03-24T23:15:38.777Z,10.60
2019-03-24T23:18:07.225Z,10.60
2019-03-24T23:20:35.667Z,10.70
2019-03-24T23:23:04.077Z,10.80
2019-03-24T23:25:32.524Z,10.80
2019-03-24T23:28:00.955Z,10.70
2019-03-24T23:30:29.406Z,10.60
2019-03-24T23:32:57.839Z,10.40
2019-03-24T23:35:26.275Z,10.50
2019-03-24T23:37:54.703Z,10.50
2019-03-24T23:40:23.137Z,10.50
2019-03-24T23:42:51.550Z,10.50
2019-03-24T23:45:19.994Z,10.50
2019-03-24T23:47:48.429Z,10.60
2019-03-24T23:50:17.006Z,10.50
2019-03-24T23:52:45.445Z,10.50
2019-03-24T23:55:13.894Z,10.40
2019-03-24T23:57:42.308Z,10.40
